createdAt,value
2019-03-04T00:00:51.949Z,68.80
2019-03-04T00:03:21.047Z,69.30
2019-03-04T00:05:49.795Z,69.30
2019-03-04T00:08:18.578Z,69.20
2019-03-04T00:10:47.425Z,69.10
2019-03-04T00:13:16.206Z,68.60
2019-03-04T00:15:45.265Z,69.10
2019-03-04T00:18:14.384Z,69.30
2019-03-04T00:20:43.135Z,69.20
2019-03-04T00:23:12.488Z,69.10
2019-03-04T00:25:41.272Z,69.30
2019-03-04T00:28:10.503Z,69.10
2019-03-04T00:30:39.274Z,69.30
2019-03-04T00:33:08.053Z,69.70
2019-03-04T00:35:37.228Z,69.70
2019-03-04T00:38:05.995Z,69.30
2019-03-04T00:40:35.079Z,69.60
2019-03-04T00:43:03.993Z,69.50
2019-03-04T00:45:32.752Z,69.40
2019-03-04T00:48:01.851Z,69.50
2019-03-04T00:50:30.628Z,69.40
2019-03-04T00:52:59.406Z,69.60
2019-03-04T00:55:28.649Z,69.60
2019-03-04T00:57:57.673Z,69.70
2019-03-04T01:00:26.743Z,70.00
2019-03-04T01:02:55.850Z,70.00
2019-03-04T01:05:25.217Z,69.90
2019-03-04T01:07:54.300Z,69.80
2019-03-04T01:10:23.214Z,69.50
2019-03-04T01:12:52.054Z,70.10
2019-03-04T01:15:22.466Z,70.10
2019-03-04T01:17:51.853Z,69.70
2019-03-04T01:20:20.671Z,69.80
2019-03-04T01:22:49.418Z,69.80
2019-03-04T01:25:18.896Z,69.70
2019-03-04T01:27:47.919Z,69.80
2019-03-04T01:30:19.047Z,69.40
2019-03-04T01:32:48.647Z,69.30
2019-03-04T01:35:17.852Z,68.80
2019-03-04T01:37:46.721Z,68.70
2019-03-04T01:40:17.685Z,68.60
2019-03-04T01:42:46.533Z,68.60
2019-03-04T01:45:15.876Z,68.80
2019-03-04T01:47:45.068Z,68.70
2019-03-04T01:50:15.790Z,68.70
2019-03-04T01:52:45.180Z,68.80
2019-03-04T01:55:14.612Z,68.90
2019-03-04T01:57:43.794Z,68.70
2019-03-04T02:00:14.955Z,68.60
2019-03-04T02:02:43.730Z,68.30
2019-03-04T02:05:13.230Z,68.30
2019-03-04T02:07:42.255Z,67.90
2019-03-04T02:10:13.281Z,67.80
2019-03-04T02:12:42.098Z,67.90
2019-03-04T02:15:12.809Z,68.20
2019-03-04T02:17:41.661Z,67.60
2019-03-04T02:20:11.500Z,67.70
2019-03-04T02:22:40.254Z,67.70
2019-03-04T02:25:11.028Z,67.20
2019-03-04T02:27:40.642Z,67.00
2019-03-04T02:30:13.314Z,66.90
2019-03-04T02:32:42.093Z,66.70
2019-03-04T02:35:11.695Z,66.10
2019-03-04T02:37:40.629Z,66.20
2019-03-04T02:40:09.656Z,66.20
2019-03-04T02:42:38.501Z,65.90
2019-03-04T02:45:09.670Z,65.90
2019-03-04T02:47:38.527Z,65.90
2019-03-04T02:50:08.214Z,65.70
2019-03-04T02:52:37.008Z,65.50
2019-03-04T02:55:06.406Z,65.40
2019-03-04T02:57:35.526Z,65.30
2019-03-04T03:00:04.912Z,65.40
2019-03-04T03:02:33.709Z,65.10
2019-03-04T03:05:02.498Z,65.20
2019-03-04T03:07:31.666Z,65.80
2019-03-04T03:10:00.430Z,65.10
2019-03-04T03:12:29.214Z,65.20
2019-03-04T03:14:57.967Z,64.90
2019-03-04T03:17:27.035Z,65.20
2019-03-04T03:19:55.796Z,65.00
2019-03-04T03:22:24.558Z,65.40
2019-03-04T03:24:53.305Z,65.10
2019-03-04T03:27:22.094Z,64.80
2019-03-04T03:29:52.015Z,64.50
2019-03-04T03:32:21.093Z,64.40
2019-03-04T03:34:49.933Z,64.40
2019-03-04T03:37:18.730Z,64.50
2019-03-04T03:39:47.571Z,64.40
2019-03-04T03:42:18.843Z,64.00
2019-03-04T03:44:47.160Z,64.00
2019-03-04T03:47:16.198Z,63.70
2019-03-04T03:49:45.018Z,63.60
2019-03-04T03:52:14.183Z,63.80
2019-03-04T03:54:42.946Z,63.70
2019-03-04T03:57:12.013Z,63.40
2019-03-04T03:59:40.880Z,63.20
2019-03-04T04:02:09.778Z,63.20
2019-03-04T04:04:39.244Z,63.00
2019-03-04T04:07:08.035Z,62.90
2019-03-04T04:09:36.792Z,62.70
2019-03-04T04:12:05.771Z,62.50
2019-03-04T04:14:34.958Z,62.50
2019-03-04T04:17:03.738Z,62.40
2019-03-04T04:19:32.883Z,62.20
2019-03-04T04:22:02.119Z,62.10
2019-03-04T04:24:30.961Z,62.10
2019-03-04T04:26:59.763Z,62.40
2019-03-04T04:29:28.943Z,62.90
2019-03-04T04:31:57.740Z,62.90
2019-03-04T04:34:26.736Z,62.60
2019-03-04T04:36:55.890Z,63.10
2019-03-04T04:39:24.675Z,63.30
2019-03-04T04:41:53.448Z,63.60
2019-03-04T04:44:22.199Z,63.70
2019-03-04T04:46:58.173Z,63.60
2019-03-04T04:49:29.127Z,63.40
2019-03-04T04:51:57.894Z,63.30
2019-03-04T04:54:26.642Z,63.30
2019-03-04T04:56:55.414Z,63.40
2019-03-04T04:59:24.518Z,63.40
2019-03-04T05:01:53.298Z,63.40
2019-03-04T05:04:22.128Z,63.30
2019-03-04T05:06:50.905Z,63.20
2019-03-04T05:09:19.701Z,63.10
2019-03-04T05:11:48.551Z,63.30
2019-03-04T05:14:17.607Z,62.90
2019-03-04T05:16:46.442Z,63.30
2019-03-04T05:19:15.758Z,63.10
2019-03-04T05:21:44.521Z,63.30
2019-03-04T05:24:13.593Z,63.50
2019-03-04T05:26:42.451Z,63.70
2019-03-04T05:29:11.308Z,63.60
2019-03-04T05:31:40.060Z,63.40
2019-03-04T05:34:09.173Z,63.60
2019-03-04T05:36:38.306Z,63.50
2019-03-04T05:39:09.382Z,63.50
2019-03-04T05:41:38.440Z,63.40
2019-03-04T05:44:07.502Z,63.00
2019-03-04T05:46:36.258Z,63.20
2019-03-04T05:49:05.122Z,63.00
2019-03-04T05:51:33.975Z,62.70
2019-03-04T05:54:03.100Z,62.70
2019-03-04T05:56:31.922Z,62.50
2019-03-04T05:59:00.952Z,62.20
2019-03-04T06:01:31.606Z,62.00
2019-03-04T06:04:03.102Z,61.70
2019-03-04T06:07:06.394Z,61.60
2019-03-04T06:09:35.177Z,61.40
2019-03-04T06:12:04.437Z,61.30
2019-03-04T06:14:33.237Z,61.10
2019-03-04T06:17:02.232Z,60.50
2019-03-04T06:19:30.998Z,60.30
2019-03-04T06:21:59.747Z,60.10
2019-03-04T06:24:28.784Z,60.20
2019-03-04T06:26:57.888Z,60.30
2019-03-04T06:29:26.667Z,59.90
2019-03-04T06:31:55.670Z,59.90
2019-03-04T06:34:24.451Z,59.80
2019-03-04T06:36:53.242Z,60.00
2019-03-04T06:39:22.443Z,59.60
2019-03-04T06:41:51.526Z,60.40
2019-03-04T06:44:20.299Z,59.70
2019-03-04T06:46:49.083Z,59.30
2019-03-04T06:49:17.854Z,59.30
2019-03-04T06:51:48.475Z,59.40
2019-03-04T06:54:45.425Z,60.20
2019-03-04T06:57:28.373Z,59.00
2019-03-04T07:00:41.443Z,58.80
2019-03-04T07:03:20.662Z,58.70
2019-03-04T07:05:50.860Z,58.60
2019-03-04T07:09:13.914Z,58.30
2019-03-04T07:11:46.628Z,58.10
2019-03-04T07:14:15.426Z,57.70
2019-03-04T07:16:44.935Z,57.70
2019-03-04T07:19:18.346Z,57.30
2019-03-04T07:21:47.530Z,57.00
2019-03-04T07:24:20.206Z,57.10
2019-03-04T07:26:49.235Z,56.90
2019-03-04T07:29:18.039Z,56.70
2019-03-04T07:31:46.954Z,57.10
2019-03-04T07:34:15.786Z,56.30
2019-03-04T07:36:44.633Z,56.20
2019-03-04T07:39:15.156Z,56.10
2019-03-04T07:41:45.852Z,56.00
2019-03-04T07:44:14.643Z,55.40
2019-03-04T07:46:43.671Z,56.60
2019-03-04T07:49:12.445Z,56.60
2019-03-04T07:51:41.218Z,55.60
2019-03-04T07:54:10.383Z,55.50
2019-03-04T07:56:39.179Z,55.40
2019-03-04T07:59:07.959Z,55.20
2019-03-04T08:01:36.719Z,55.30
2019-03-04T08:04:05.902Z,55.10
2019-03-04T08:06:34.736Z,55.20
2019-03-04T08:09:30.379Z,55.10
2019-03-04T08:12:35.713Z,54.90
2019-03-04T08:15:05.646Z,55.10
2019-03-04T08:17:34.437Z,55.80
2019-03-04T08:20:03.292Z,55.50
2019-03-04T08:22:32.059Z,55.40
2019-03-04T08:25:00.847Z,54.80
2019-03-04T08:27:29.910Z,54.50
2019-03-04T08:29:59.054Z,54.60
2019-03-04T08:32:27.833Z,54.30
2019-03-04T08:34:56.891Z,54.50
2019-03-04T08:37:25.977Z,54.50
2019-03-04T08:39:55.017Z,54.50
2019-03-04T08:42:24.159Z,54.50
2019-03-04T08:44:52.950Z,54.60
2019-03-04T08:47:21.694Z,54.90
2019-03-04T08:49:50.482Z,54.60
2019-03-04T08:52:19.544Z,54.70
2019-03-04T08:54:48.748Z,54.60
2019-03-04T08:57:17.574Z,56.80
2019-03-04T08:59:46.332Z,62.40
2019-03-04T09:02:15.124Z,64.80
2019-03-04T09:04:44.291Z,66.60
2019-03-04T09:07:13.140Z,67.90
2019-03-04T09:09:41.890Z,68.10
2019-03-04T09:12:10.976Z,69.90
2019-03-04T09:14:40.058Z,68.20
2019-03-04T09:17:10.759Z,69.50
2019-03-04T09:19:39.680Z,70.00
2019-03-04T09:22:08.886Z,70.10
2019-03-04T09:24:37.631Z,70.10
2019-03-04T09:27:07.395Z,71.70
2019-03-04T09:29:36.514Z,73.20
2019-03-04T09:32:05.479Z,72.00
2019-03-04T09:34:34.568Z,71.40
2019-03-04T09:37:03.764Z,70.90
2019-03-04T09:39:32.961Z,71.70
2019-03-04T09:42:27.345Z,71.90
2019-03-04T09:44:56.438Z,71.30
2019-03-04T09:47:25.268Z,71.20
2019-03-04T09:49:54.045Z,70.90
2019-03-04T09:52:23.136Z,70.80
2019-03-04T09:54:51.985Z,70.50
2019-03-04T09:57:20.779Z,70.90
2019-03-04T09:59:49.940Z,70.40
2019-03-04T10:02:26.758Z,70.40
2019-03-04T10:05:43.099Z,70.10
2019-03-04T10:08:46.747Z,71.10
2019-03-04T10:11:48.313Z,71.10
2019-03-04T10:14:51.339Z,70.00
2019-03-04T10:18:07.831Z,68.90
2019-03-04T10:21:01.537Z,68.00
2019-03-04T10:24:00.299Z,68.20
2019-03-04T10:27:15.275Z,67.50
2019-03-04T10:30:31.319Z,67.50
2019-03-04T10:33:24.857Z,66.90
2019-03-04T10:36:09.561Z,66.20
2019-03-04T10:39:23.025Z,66.30
2019-03-04T10:42:23.110Z,66.50
2019-03-04T10:45:11.016Z,66.40
2019-03-04T10:47:39.799Z,66.10
2019-03-04T10:50:09.389Z,64.10
2019-03-04T10:52:38.185Z,64.10
2019-03-04T10:55:08.470Z,63.00
2019-03-04T10:57:37.592Z,62.60
2019-03-04T11:00:14.489Z,62.40
2019-03-04T11:02:43.593Z,62.10
2019-03-04T11:05:12.856Z,62.00
2019-03-04T11:07:41.798Z,62.30
2019-03-04T11:10:11.005Z,60.50
2019-03-04T11:12:39.990Z,60.80
2019-03-04T11:15:21.115Z,60.10
2019-03-04T11:17:50.230Z,57.40
2019-03-04T11:20:18.992Z,57.80
2019-03-04T11:22:47.860Z,54.80
2019-03-04T11:25:18.346Z,54.30
2019-03-04T11:27:47.578Z,51.90
2019-03-04T11:30:17.143Z,51.20
2019-03-04T11:32:46.322Z,50.20
2019-03-04T11:35:15.917Z,50.10
2019-03-04T11:37:45.312Z,49.50
2019-03-04T11:40:23.520Z,48.70
2019-03-04T11:42:52.644Z,48.80
2019-03-04T11:45:21.834Z,49.70
2019-03-04T11:47:50.999Z,49.70
2019-03-04T11:50:20.110Z,50.20
2019-03-04T11:52:48.956Z,51.10
2019-03-04T11:55:18.676Z,52.00
2019-03-04T11:57:47.837Z,51.70
2019-03-04T12:00:26.639Z,50.70
2019-03-04T12:02:55.416Z,51.90
2019-03-04T12:05:24.528Z,51.70
2019-03-04T12:07:53.619Z,51.60
2019-03-04T12:10:22.819Z,52.00
2019-03-04T12:12:51.918Z,50.90
2019-03-04T12:15:20.929Z,51.90
2019-03-04T12:17:49.772Z,52.40
2019-03-04T12:20:18.799Z,51.00
2019-03-04T12:22:47.839Z,52.00
2019-03-04T12:25:16.997Z,51.80
2019-03-04T12:27:46.092Z,51.90
2019-03-04T12:30:17.275Z,51.40
2019-03-04T12:32:46.514Z,51.30
2019-03-04T12:35:15.810Z,51.00
2019-03-04T12:37:44.887Z,50.80
2019-03-04T12:40:14.528Z,50.90
2019-03-04T12:42:43.543Z,52.10
2019-03-04T12:45:14.278Z,51.90
2019-03-04T12:47:43.637Z,51.90
2019-03-04T12:50:18.028Z,51.20
2019-03-04T12:52:46.799Z,51.40
2019-03-04T12:55:15.647Z,51.00
2019-03-04T12:57:44.861Z,50.80
2019-03-04T13:00:17.330Z,49.30
2019-03-04T13:02:46.503Z,50.00
2019-03-04T13:05:15.451Z,49.80
2019-03-04T13:07:44.402Z,50.60
2019-03-04T13:10:14.112Z,51.30
2019-03-04T13:12:43.877Z,51.20
2019-03-04T13:15:15.874Z,51.50
2019-03-04T13:17:45.022Z,52.00
2019-03-04T13:20:14.623Z,52.30
2019-03-04T13:22:43.390Z,52.60
2019-03-04T13:25:12.347Z,53.10
2019-03-04T13:27:41.527Z,54.40
2019-03-04T13:30:13.626Z,56.00
2019-03-04T13:32:42.827Z,56.70
2019-03-04T13:35:13.443Z,57.00
2019-03-04T13:37:42.352Z,57.80
2019-03-04T13:40:12.582Z,57.90
2019-03-04T13:42:41.443Z,58.00
2019-03-04T13:45:12.220Z,57.80
2019-03-04T13:47:41.314Z,58.20
2019-03-04T13:50:13.901Z,58.50
2019-03-04T13:52:43.074Z,59.10
2019-03-04T13:55:12.761Z,62.00
2019-03-04T13:57:41.799Z,66.40
2019-03-04T14:00:13.034Z,69.50
2019-03-04T14:02:42.088Z,70.90
2019-03-04T14:05:11.779Z,72.50
2019-03-04T14:07:40.855Z,74.40
2019-03-04T14:10:11.519Z,74.50
2019-03-04T14:12:40.313Z,74.20
2019-03-04T14:15:13.019Z,74.80
2019-03-04T14:17:42.235Z,75.60
2019-03-04T14:20:11.670Z,75.30
2019-03-04T14:22:40.732Z,75.90
2019-03-04T14:25:10.685Z,76.70
2019-03-04T14:27:39.818Z,75.60
2019-03-04T14:30:11.832Z,75.50
2019-03-04T14:32:40.980Z,74.50
2019-03-04T14:35:10.471Z,75.60
2019-03-04T14:37:39.582Z,73.80
2019-03-04T14:40:09.679Z,73.30
2019-03-04T14:42:38.796Z,73.30
2019-03-04T14:45:09.907Z,73.60
2019-03-04T14:47:39.041Z,72.70
2019-03-04T14:50:10.465Z,71.10
2019-03-04T14:52:39.862Z,71.50
2019-03-04T14:55:11.208Z,71.40
2019-03-04T14:57:40.228Z,69.80
2019-03-04T15:00:15.988Z,69.70
2019-03-04T15:02:44.752Z,69.90
2019-03-04T15:05:14.000Z,69.40
2019-03-04T15:07:42.759Z,68.10
2019-03-04T15:10:12.024Z,69.50
2019-03-04T15:12:41.230Z,69.00
2019-03-04T15:15:10.714Z,67.70
2019-03-04T15:17:39.694Z,67.30
2019-03-04T15:20:10.213Z,67.90
2019-03-04T15:22:39.141Z,66.70
2019-03-04T15:25:10.612Z,66.70
2019-03-04T15:27:39.747Z,66.10
2019-03-04T15:30:10.679Z,65.40
2019-03-04T15:32:39.773Z,65.80
2019-03-04T15:35:08.815Z,65.20
2019-03-04T15:37:37.588Z,65.50
2019-03-04T15:40:07.325Z,65.40
2019-03-04T15:42:36.632Z,65.30
2019-03-04T15:45:05.900Z,64.30
2019-03-04T15:47:36.697Z,64.70
2019-03-04T15:50:05.998Z,64.10
2019-03-04T15:52:35.366Z,63.60
2019-03-04T15:55:04.763Z,63.40
2019-03-04T15:57:33.544Z,62.90
2019-03-04T16:00:02.760Z,62.90
2019-03-04T16:02:31.687Z,62.70
2019-03-04T16:05:00.747Z,63.10
2019-03-04T16:07:29.780Z,63.00
2019-03-04T16:09:58.602Z,63.20
2019-03-04T16:12:27.649Z,63.00
2019-03-04T16:14:56.723Z,61.60
2019-03-04T16:17:25.563Z,61.10
2019-03-04T16:19:54.405Z,61.40
2019-03-04T16:22:23.580Z,60.50
2019-03-04T16:24:52.760Z,61.10
2019-03-04T16:27:21.811Z,60.90
2019-03-04T16:29:50.571Z,61.60
2019-03-04T16:32:19.429Z,61.20
2019-03-04T16:34:48.544Z,61.00
2019-03-04T16:37:17.690Z,62.00
2019-03-04T16:39:46.546Z,61.60
2019-03-04T16:42:15.339Z,61.40
2019-03-04T16:44:44.433Z,61.00
2019-03-04T16:47:13.916Z,61.30
2019-03-04T16:49:42.674Z,61.00
2019-03-04T16:52:11.541Z,60.80
2019-03-04T16:54:40.606Z,61.30
2019-03-04T16:57:13.970Z,61.40
2019-03-04T16:59:43.299Z,61.70
2019-03-04T17:02:12.788Z,61.90
2019-03-04T17:04:41.548Z,61.80
2019-03-04T17:07:10.775Z,61.20
2019-03-04T17:09:39.949Z,61.90
2019-03-04T17:12:09.180Z,61.60
2019-03-04T17:14:38.485Z,61.70
2019-03-04T17:17:12.669Z,61.20
2019-03-04T17:19:42.408Z,61.10
2019-03-04T17:22:11.937Z,61.10
2019-03-04T17:24:40.889Z,61.00
2019-03-04T17:27:10.311Z,60.50
2019-03-04T17:29:39.414Z,60.20
2019-03-04T17:32:08.993Z,60.00
2019-03-04T17:34:37.757Z,59.40
2019-03-04T17:37:06.685Z,59.30
2019-03-04T17:39:35.644Z,59.40
2019-03-04T17:42:05.110Z,59.40
2019-03-04T17:44:34.711Z,59.70
2019-03-04T17:47:03.881Z,59.50
2019-03-04T17:49:32.639Z,58.90
2019-03-04T17:52:01.652Z,59.30
2019-03-04T17:54:30.515Z,59.10
2019-03-04T17:56:59.884Z,59.30
2019-03-04T17:59:28.948Z,59.40
2019-03-04T18:01:57.722Z,58.80
2019-03-04T18:04:26.475Z,57.90
2019-03-04T18:06:55.258Z,57.90
2019-03-04T18:09:24.408Z,58.00
2019-03-04T18:11:53.178Z,58.10
2019-03-04T18:14:22.588Z,58.20
2019-03-04T18:16:51.688Z,57.90
2019-03-04T18:19:20.434Z,57.50
2019-03-04T18:21:49.217Z,57.00
2019-03-04T18:24:17.966Z,57.50
2019-03-04T18:26:57.918Z,57.40
2019-03-04T18:30:05.159Z,57.20
2019-03-04T18:33:06.492Z,57.50
2019-03-04T18:36:15.259Z,57.30
2019-03-04T18:39:01.603Z,57.90
2019-03-04T18:41:48.733Z,58.30
2019-03-04T18:44:34.523Z,58.20
2019-03-04T18:47:42.021Z,58.40
2019-03-04T18:50:10.794Z,58.60
2019-03-04T18:52:39.583Z,58.40
2019-03-04T18:55:08.519Z,58.50
2019-03-04T18:57:37.466Z,58.30
2019-03-04T19:00:12.535Z,58.20
2019-03-04T19:02:41.641Z,58.00
2019-03-04T19:05:11.027Z,57.70
2019-03-04T19:07:40.755Z,57.90
2019-03-04T19:10:10.196Z,58.00
2019-03-04T19:12:38.946Z,57.90
2019-03-04T19:15:08.270Z,58.40
2019-03-04T19:17:37.665Z,58.20
2019-03-04T19:20:09.625Z,57.80
2019-03-04T19:22:38.382Z,58.20
2019-03-04T19:25:07.609Z,58.00
2019-03-04T19:27:36.355Z,58.00
2019-03-04T19:30:06.155Z,57.90
2019-03-04T19:32:34.922Z,58.60
2019-03-04T19:35:03.926Z,58.50
2019-03-04T19:37:33.018Z,58.50
2019-03-04T19:40:01.930Z,57.90
2019-03-04T19:42:30.774Z,57.50
2019-03-04T19:44:59.907Z,57.40
2019-03-04T19:47:29.237Z,57.60
2019-03-04T19:49:58.353Z,57.60
2019-03-04T19:52:27.449Z,57.60
2019-03-04T19:54:56.217Z,57.10
2019-03-04T19:57:24.970Z,56.80
2019-03-04T19:59:54.027Z,57.30
2019-03-04T20:02:22.775Z,56.90
2019-03-04T20:04:51.600Z,56.80
2019-03-04T20:07:20.631Z,56.60
2019-03-04T20:09:49.747Z,56.60
2019-03-04T20:12:18.665Z,56.70
2019-03-04T20:14:48.467Z,57.30
2019-03-04T20:17:17.225Z,57.20
2019-03-04T20:19:45.998Z,57.50
2019-03-04T20:22:15.203Z,57.40
2019-03-04T20:24:44.342Z,57.70
2019-03-04T20:27:13.661Z,57.80
2019-03-04T20:29:42.504Z,57.70
2019-03-04T20:32:11.662Z,57.40
2019-03-04T20:34:40.443Z,57.50
2019-03-04T20:37:09.642Z,57.40
2019-03-04T20:39:38.406Z,57.30
2019-03-04T20:42:07.431Z,57.40
2019-03-04T20:44:36.551Z,57.80
2019-03-04T20:47:05.385Z,57.70
2019-03-04T20:49:34.162Z,58.00
2019-03-04T20:52:02.904Z,58.40
2019-03-04T20:54:31.671Z,58.40
2019-03-04T20:57:00.456Z,58.00
2019-03-04T20:59:29.680Z,58.00
2019-03-04T21:01:58.536Z,58.40
2019-03-04T21:04:27.315Z,58.30
2019-03-04T21:06:56.525Z,58.10
2019-03-04T21:09:25.603Z,57.90
2019-03-04T21:11:54.459Z,57.90
2019-03-04T21:14:23.241Z,58.10
2019-03-04T21:16:52.084Z,58.00
2019-03-04T21:19:20.830Z,57.90
2019-03-04T21:21:49.997Z,57.50
2019-03-04T21:24:18.834Z,57.90
2019-03-04T21:26:49.130Z,57.50
2019-03-04T21:29:30.222Z,57.40
2019-03-04T21:32:09.100Z,57.80
2019-03-04T21:35:07.858Z,57.30
2019-03-04T21:37:39.729Z,57.70
2019-03-04T21:40:13.660Z,57.60
2019-03-04T21:42:58.117Z,57.80
2019-03-04T21:46:09.922Z,57.50
2019-03-04T21:48:48.957Z,57.30
2019-03-04T21:51:38.425Z,57.60
2019-03-04T21:54:08.622Z,57.90
2019-03-04T21:56:44.403Z,58.00
2019-03-04T21:59:13.675Z,57.60
2019-03-04T22:01:47.677Z,57.60
2019-03-04T22:04:16.509Z,57.30
2019-03-04T22:06:45.423Z,57.00
2019-03-04T22:09:14.974Z,57.10
2019-03-04T22:11:44.451Z,57.00
2019-03-04T22:14:13.237Z,57.00
2019-03-04T22:16:42.554Z,56.90
2019-03-04T22:19:11.618Z,56.60
2019-03-04T22:21:40.612Z,56.60
2019-03-04T22:24:09.741Z,56.30
2019-03-04T22:26:39.164Z,56.30
2019-03-04T22:29:08.341Z,56.30
2019-03-04T22:31:37.146Z,56.10
2019-03-04T22:34:06.003Z,56.20
2019-03-04T22:36:35.096Z,56.00
2019-03-04T22:39:05.141Z,55.80
2019-03-04T22:41:33.977Z,55.80
2019-03-04T22:44:02.771Z,55.90
2019-03-04T22:46:31.903Z,55.80
2019-03-04T22:49:00.954Z,55.80
2019-03-04T22:51:29.721Z,56.10
2019-03-04T22:53:58.509Z,56.40
2019-03-04T22:56:27.324Z,56.80
2019-03-04T22:58:56.087Z,56.90
2019-03-04T23:01:47.539Z,57.20
2019-03-04T23:04:28.828Z,57.30
2019-03-04T23:07:12.303Z,57.00
2019-03-04T23:09:54.415Z,57.50
2019-03-04T23:12:27.897Z,57.60
2019-03-04T23:14:56.670Z,57.50
2019-03-04T23:17:25.405Z,57.70
2019-03-04T23:19:54.166Z,57.50
2019-03-04T23:22:22.910Z,58.10
2019-03-04T23:24:52.212Z,57.60
2019-03-04T23:27:20.963Z,57.40
2019-03-04T23:29:49.739Z,57.70
2019-03-04T23:32:18.504Z,58.40
2019-03-04T23:34:47.260Z,57.80
2019-03-04T23:37:16.089Z,58.00
2019-03-04T23:39:45.183Z,58.50
2019-03-04T23:42:14.285Z,58.60
2019-03-04T23:44:43.315Z,59.20
2019-03-04T23:47:12.351Z,59.00
2019-03-04T23:49:41.131Z,59.60
2019-03-04T23:52:09.877Z,59.40
2019-03-04T23:54:38.662Z,59.50
2019-03-04T23:57:07.710Z,59.40
2019-03-04T23:59:36.477Z,59.30
